Time;durP1;ratioP1;P1;durP2;ratioP2;P2;SDS_P1;SDS_P2;PMS_P1;PMS_P2;Temp;Humidity;BMP_temperature;BMP_pressure;BME280_temperature;BME280_humidity;BME280_pressure;Samples;Min_cycle;Max_cycle;Signal;HPM_P1;HPM_P2
2022/04/29 00:00:38;;;;;;;2.27;1.30;;;;;;;;;;20848972;28;20238;-84
2022/04/29 00:10:42;;;;;;;1.83;1.20;;;;;;;;;;20840003;28;20211;-83
2022/04/29 00:20:44;;;;;;;1.67;1.03;;;;;;;;;;20820698;28;20882;-83
2022/04/29 00:30:45;;;;;;;1.20;0.80;;;;;;;;;;20814352;28;20218;-83
2022/04/29 00:40:49;;;;;;;1.47;1.03;;;;;;;;;;20732621;28;20289;-83
2022/04/29 00:50:51;;;;;;;2.17;1.27;;;;;;;;;;20734049;28;20265;-83
2022/04/29 01:00:53;;;;;;;4.57;1.30;;;15.40;99.90;;;;;;20758789;28;20234;-82
2022/04/29 01:10:56;;;;;;;1.97;1.10;;;;;;;;;;20766898;28;20211;-82
2022/04/29 01:21:03;;;;;;;1.60;1.20;;;;;;;;;;20748406;28;20227;-83
2022/04/29 01:31:06;;;;;;;2.03;1.40;;;;;;;;;;20747012;28;20227;-81
2022/04/29 01:41:09;;;;;;;1.53;1.10;;;;;;;;;;20771594;28;20266;-81
2022/04/29 01:51:15;;;;;;;2.07;1.30;;;;;;;;;;20729175;28;20254;-81
2022/04/29 02:01:17;;;;;;;2.37;1.70;;;;;;;;;;20743022;28;20709;-82
2022/04/29 02:11:19;;;;;;;2.00;1.30;;;;;;;;;;20739230;28;20211;-82
2022/04/29 02:21:26;;;;;;;2.27;1.47;;;;;;;;;;20738790;28;20297;-83
2022/04/29 02:31:29;;;;;;;2.73;1.80;;;;;;;;;;20740466;28;20261;-81
2022/04/29 02:41:31;;;;;;;2.80;2.00;;;;;;;;;;20745106;28;20297;-81
2022/04/29 02:51:33;;;;;;;2.27;1.80;;;;;;;;;;20759507;28;20684;-81
2022/04/29 03:01:35;;;;;;;2.80;1.80;;;;;;;;;;20754507;28;20688;-83
2022/04/29 03:11:37;;;;;;;4.27;1.90;;;14.30;99.90;;;;;;20820626;28;20210;-81
2022/04/29 03:21:39;;;;;;;3.77;1.70;;;;;;;;;;20800653;28;20226;-81
2022/04/29 03:31:41;;;;;;;3.30;2.23;;;;;;;;;;20818914;28;20778;-82
2022/04/29 03:42:02;;;;;;;2.73;1.80;;;;;;;;;;20819607;28;20230;-81
2022/04/29 03:52:05;;;;;;;3.20;2.07;;;;;;;;;;20833676;28;20270;-81
2022/04/29 04:02:07;;;;;;;2.90;1.80;;;;;;;;;;20812557;28;20230;-81
2022/04/29 04:12:10;;;;;;;4.43;2.30;;;;;;;;;;20828927;28;20241;-81
2022/04/29 04:22:30;;;;;;;3.70;2.00;;;;;;;;;;20780713;28;20239;-81
2022/04/29 04:32:36;;;;;;;2.53;1.77;;;;;;;;;;20730971;28;20778;-80
2022/04/29 04:42:45;;;;;;;5.47;2.03;;;;;;;;;;20744748;28;20711;-81
2022/04/29 04:52:49;;;;;;;2.83;1.73;;;;;;;;;;20697417;28;20199;-81
2022/04/29 05:02:51;;;;;;;3.17;1.90;;;;;;;;;;20694827;28;20258;-81
2022/04/29 05:13:31;;;;;;;2.50;1.80;;;;;;;;;;20732076;28;20230;-80
2022/04/29 05:23:34;;;;;;;2.40;1.70;;;;;;;;;;20744564;28;20250;-81
2022/04/29 05:34:04;;;;;;;2.43;1.70;;;;;;;;;;20762818;28;20223;-81
2022/04/29 05:44:25;;;;;;;3.57;1.90;;;;;;;;;;20842128;28;20219;-81
2022/04/29 05:54:27;;;;;;;4.57;1.90;;;;;;;;;;20823264;28;20222;-80
2022/04/29 06:04:31;;;;;;;2.43;1.77;;;;;;;;;;20852422;28;20227;-81
2022/04/29 06:14:34;;;;;;;4.17;2.00;;;;;;;;;;20836744;28;20292;-81
2022/04/29 06:24:55;;;;;;;8.07;1.87;;;;;;;;;;20806794;28;20706;-81
2022/04/29 06:34:57;;;;;;;2.60;1.90;;;;;;;;;;20799758;28;20284;-82
2022/04/29 06:45:00;;;;;;;3.10;1.87;;;;;;;;;;20790127;28;20577;-82
2022/04/29 06:55:28;;;;;;;3.30;2.27;;;;;;;;;;20809183;28;20234;-82
2022/04/29 07:05:31;;;;;;;3.03;2.13;;;;;;;;;;20810360;28;20207;-81
2022/04/29 07:15:43;;;;;;;2.50;1.90;;;;;;;;;;20857651;28;20239;-82
2022/04/29 07:26:02;;;;;;;3.43;2.30;;;;;;;;;;20803294;28;20567;-82
2022/04/29 07:46:27;;;;;;;4.17;2.53;;;;;;;;;;20815481;28;20653;-82
2022/04/29 07:56:49;;;;;;;4.40;2.50;;;;;;;;;;20811018;28;20249;-82
2022/04/29 08:06:53;;;;;;;4.87;2.30;;;;;;;;;;20788684;28;20211;-82
2022/04/29 08:16:55;;;;;;;4.60;2.80;;;;;;;;;;20764483;28;20261;-82
2022/04/29 08:27:04;;;;;;;3.17;2.17;;;;;;;;;;20809913;28;20260;-82
2022/04/29 08:37:06;;;;;;;3.93;2.83;;;;;;;;;;20802480;28;20235;-82
2022/04/29 08:47:15;;;;;;;4.67;2.47;;;17.80;99.90;;;;;;20774239;28;20214;-83
2022/04/29 09:08:00;;;;;;;4.10;2.57;;;;;;;;;;20844155;28;20211;-83
2022/04/29 09:18:01;;;;;;;4.67;2.43;;;;;;;;;;20810404;28;20223;-83
2022/04/29 09:28:04;;;;;;;2.93;2.00;;;;;;;;;;20772503;28;20700;-83
2022/04/29 09:49:12;;;;;;;3.10;2.13;;;;;;;;;;20854343;28;20198;-83
2022/04/29 09:59:14;;;;;;;3.80;2.83;;;;;;;;;;20781971;28;20239;-82
2022/04/29 10:09:17;;;;;;;3.30;2.30;;;;;;;;;;20757373;28;20211;-83
2022/04/29 10:30:00;;;;;;;3.30;2.17;;;;;;;;;;20821908;28;20272;-82
2022/04/29 10:40:10;;;;;;;3.80;2.00;;;;;;;;;;20805344;28;20296;-82
2022/04/29 10:50:34;;;;;;;3.20;2.13;;;;;;;;;;20836518;28;20219;-83
2022/04/29 11:01:13;;;;;;;3.93;2.40;;;;;;;;;;20827868;28;20233;-82
2022/04/29 11:11:15;;;;;;;3.20;1.67;;;;;;;;;;20807386;28;20211;-82
2022/04/29 11:32:26;;;;;;;4.97;2.43;;;;;;;;;;20829226;28;20643;-83
2022/04/29 11:42:28;;;;;;;4.10;1.47;;;;;;;;;;20743916;28;20232;-82
2022/04/29 11:52:31;;;;;;;2.80;1.50;;;;;;;;;;20734061;28;20240;-82
2022/04/29 12:02:33;;;;;;;3.47;1.73;;;;;;;;;;20732797;28;20292;-82
2022/04/29 12:12:35;;;;;;;2.77;1.67;;;;;;;;;;20716570;28;20212;-83
2022/04/29 12:22:38;;;;;;;1.90;1.47;;;20.90;95.50;;;;;;20719493;28;20260;-82
2022/04/29 12:43:12;;;;;;;2.97;1.90;;;21.50;99.10;;;;;;20829293;28;20253;-83
2022/04/29 12:53:16;;;;;;;3.00;1.90;;;21.90;96.50;;;;;;20825179;28;20201;-83
2022/04/29 13:03:23;;;;;;;3.63;1.73;;;;;;;;;;20792657;28;20223;-83
2022/04/29 13:13:32;;;;;;;2.77;1.63;;;;;;;;;;20808712;28;20241;-83
2022/04/29 13:23:35;;;;;;;1.80;1.30;;;;;;;;;;20791324;28;20281;-83
2022/04/29 13:33:42;;;;;;;2.40;1.30;;;;;;;;;;20695263;28;1065604;-83
2022/04/29 13:43:44;;;;;;;3.03;1.50;;;;;;;;;;20729064;28;20552;-83
2022/04/29 13:53:47;;;;;;;3.13;1.30;;;;;;;;;;20802616;28;20316;-83
2022/04/29 14:03:49;;;;;;;2.10;1.40;;;;;;;;;;20738141;28;20243;-83
2022/04/29 14:13:51;;;;;;;1.57;1.13;;;;;;;;;;20752817;28;20230;-82
2022/04/29 14:23:53;;;;;;;1.50;1.00;;;;;;;;;;20751635;28;20632;-82
2022/04/29 14:33:54;;;;;;;2.30;1.33;;;;;;;;;;20735192;28;20253;-82
2022/04/29 14:43:57;;;;;;;1.40;0.97;;;;;;;;;;20734751;28;20231;-83
2022/04/29 14:53:59;;;;;;;1.67;1.20;;;;;;;;;;20733389;28;20238;-82
2022/04/29 15:04:03;;;;;;;1.90;0.93;;;;;;;;;;20732479;28;20696;-83
2022/04/29 15:24:26;;;;;;;1.30;1.00;;;;;;;;;;20746602;28;20212;-82
2022/04/29 15:34:30;;;;;;;1.40;0.80;;;;;;;;;;20746527;28;20216;-82
2022/04/29 15:44:32;;;;;;;2.40;1.40;;;;;;;;;;20729773;28;20226;-83
2022/04/29 15:54:34;;;;;;;1.40;1.00;;;;;;;;;;20745241;28;20280;-83
2022/04/29 16:04:36;;;;;;;1.27;0.80;;;;;;;;;;20728703;28;20219;-83
2022/04/29 16:14:38;;;;;;;1.77;1.23;;;;;;;;;;20744418;28;20253;-82
2022/04/29 16:35:03;;;;;;;2.37;0.83;;;;;;;;;;20745105;28;20225;-82
2022/04/29 16:45:06;;;;;;;2.07;0.97;;;21.20;94.90;;;;;;20742714;28;20226;-84
2022/04/29 16:55:09;;;;;;;1.27;0.67;;;;;;;;;;20726132;28;20231;-83
2022/04/29 17:05:11;;;;;;;1.37;0.83;;;;;;;;;;20795824;28;20221;-82
2022/04/29 17:15:13;;;;;;;1.20;0.80;;;;;;;;;;20807493;28;20233;-83
2022/04/29 17:25:15;;;;;;;2.10;0.70;;;;;;;;;;20824332;28;20256;-83
2022/04/29 17:35:17;;;;;;;1.23;0.90;;;;;;;;;;20842615;28;20222;-83
2022/04/29 17:45:19;;;;;;;0.97;0.60;;;;;;;;;;20823713;28;20243;-83
2022/04/29 17:55:29;;;;;;;1.57;0.77;;;;;;;;;;20837450;28;20299;-83
2022/04/29 18:05:31;;;;;;;1.00;0.80;;;;;;;;;;20848296;28;20244;-84
2022/04/29 18:15:35;;;;;;;2.80;0.90;;;;;;;;;;20795901;28;20226;-83
2022/04/29 18:25:39;;;;;;;2.23;1.23;;;;;;;;;;20720535;28;20280;-84
2022/04/29 18:35:41;;;;;;;2.30;0.87;;;;;;;;;;20753306;28;20560;-84
2022/04/29 18:45:43;;;;;;;0.97;0.70;;;;;;;;;;20724812;28;20371;-83
2022/04/29 18:55:46;;;;;;;2.83;1.00;;;;;;;;;;20718936;28;20244;-84
2022/04/29 19:05:49;;;;;;;1.80;1.00;;;;;;;;;;20718940;28;20233;-84
2022/04/29 19:15:51;;;;;;;1.73;1.13;;;;;;;;;;20816033;28;20259;-84
2022/04/29 19:25:54;;;;;;;2.50;1.40;;;;;;;;;;20846786;28;20278;-83
2022/04/29 19:35:56;;;;;;;1.80;1.30;;;;;;;;;;20823709;28;20547;-85
2022/04/29 19:45:58;;;;;;;1.93;0.90;;;;;;;;;;20800465;28;20213;-83
2022/04/29 19:56:01;;;;;;;1.00;0.80;;;;;;;;;;20753665;28;20236;-83
2022/04/29 20:06:03;;;;;;;1.97;1.00;;;;;;;;;;20755630;28;20224;-85
2022/04/29 20:16:05;;;;;;;2.07;1.30;;;;;;;;;;20713492;28;20712;-83
2022/04/29 20:26:07;;;;;;;1.97;1.13;;;;;;;;;;20788241;28;20269;-84
2022/04/29 20:36:09;;;;;;;1.17;1.00;;;;;;;;;;20808839;28;20681;-84
2022/04/29 20:46:11;;;;;;;1.40;1.07;;;;;;;;;;20791887;28;20768;-84
2022/04/29 20:56:13;;;;;;;1.60;1.20;;;;;;;;;;20801751;28;20228;-84
2022/04/29 21:06:16;;;;;;;2.13;1.43;;;;;;;;;;20828073;28;20219;-83
2022/04/29 21:16:19;;;;;;;3.23;1.80;;;18.70;99.90;;;;;;20819353;28;20218;-83
2022/04/29 21:26:22;;;;;;;3.57;2.43;;;;;;;;;;20822958;28;20220;-83
2022/04/29 21:36:24;;;;;;;6.60;2.70;;;;;;;;;;20798225;28;20249;-83
2022/04/29 21:46:28;;;;;;;6.17;2.80;;;;;;;;;;20804029;28;20316;-85
2022/04/29 21:56:30;;;;;;;4.37;2.33;;;;;;;;;;20759381;28;20286;-86
2022/04/29 22:06:35;;;;;;;4.53;2.30;;;;;;;;;;20738153;28;20266;-84
2022/04/29 22:16:37;;;;;;;5.70;2.77;;;;;;;;;;20756657;28;20583;-85
2022/04/29 22:26:39;;;;;;;5.93;2.70;;;;;;;;;;20752315;28;20690;-84
2022/04/29 22:36:41;;;;;;;4.43;2.57;;;;;;;;;;20736092;28;20232;-85
2022/04/29 22:46:43;;;;;;;5.40;2.50;;;;;;;;;;20768529;28;20217;-82
2022/04/29 22:56:45;;;;;;;3.40;2.40;;;;;;;;;;20749976;28;20212;-83
2022/04/29 23:06:47;;;;;;;5.97;2.67;;;;;;;;;;20763087;28;20576;-82
2022/04/29 23:16:48;;;;;;;3.77;2.77;;;;;;;;;;20747393;28;20281;-81
2022/04/29 23:26:50;;;;;;;4.83;3.13;;;;;;;;;;20732311;28;20199;-82
2022/04/29 23:36:52;;;;;;;5.00;3.13;;;;;;;;;;20731075;28;20302;-83
2022/04/29 23:46:54;;;;;;;4.73;3.17;;;;;;;;;;20746981;28;20250;-83
2022/04/29 23:56:56;;;;;;;4.67;2.83;;;;;;;;;;20730905;28;20215;-83
